Latest METARs, TAFs and NOTAMs for RJAA


---------------------------------------------------------------------------
	(OBSERVATIONS)
RJAA 170200Z 32009KT 9999 FEW030 BKN040 06/M03 Q1014 NOSIG RMK
    1CU030 7SC040 A2996=
RJAA 170130Z 32008KT 280V010 9999 FEW030 BKN040 06/M03 Q1015
    NOSIG RMK 1CU030 7SC040 A2998=
RJAA 170100Z 36009KT 9999 FEW030 BKN040 06/M03 Q1015 NOSIG RMK
    1CU030 7SC040 A2999=
RJAA 170030Z 35009KT 9999 FEW030 BKN040 06/M04 Q1016 NOSIG RMK
    1CU030 7SC040 A3000=
RJAA 170000Z 35009KT 9999 FEW030 BKN040 05/M04 Q1016 NOSIG RMK
    1CU030 7SC040 A3001=
RJAA 162330Z 01009KT 9999 FEW030 BKN045 05/M05 Q1016 NOSIG RMK
    1CU030 7SC045 A3001=
---------------------------------------------------------------------------
	(TERMINAL AREA FORECAST)
RJAA 162305Z 1700/1806 02006KT 9999 FEW030 BKN045
    BECMG 1803/1806 22008KT=
---------------------------------------------------------------------------
	(NOTAMS)


RJAA A1676/20 REF AIC 023/14 (CHANGE TO READ) FLIGHT TRACK MONITORING
    AT NARITA INTL AP/RJAA ATTACHMENT-1,2 DELETE VIEW SAKURA
    DME(TYD. 17 NOV 03:00 2020 UNTIL PERM. CREATED: 17 NOV 03:00
    2020

RJAA A1697/20 CRANE EXIST ABV HORIZONTAL SFC 1.PSN : BOUNDED
    BY FLW POINT 354611.24N1402308.34E 354612.09N1402310.13E
    354609.08N1402312.31E 354608.13N1402310.42E (QTE/008.0DEG
    416.15M FM RJAA ARP) (NARITA-SHI IN CHIBA) 2.NUMBER: 1 3.RMK
    : WX MNM, INSTRUMENT APCH PROC, DEP PROC NO CHANGE. SFC -
    413FT AMSL, 26 NOV 23:00 2020 UNTIL 25 FEB 23:00 2021. CREATED:
    26 NOV 09:17 2020

RJAA A1716/20 TWY N2-CLSD DUE TO ACFT PARKING RMK/EXC ACFT WITH
    PRIOR PERMISSION FOR TAX AND TOWING. 02 DEC 02:36 2020 UNTIL
    02 MAR 15:00 2021. CREATED: 02 DEC 02:37 2020

RJAA A1717/20 SPOT 705C,705D,806N-TEMPO INSTL ON TWY N2 RMK/(1)INS
    CHECKPOINT: SPOT 705C 354451.66N1402338.53E SPOT 705D 354449.71N1402339.61E
    SPOT 806N 354448.92N1402337.40E (2)ACFT WITH PRIOR PERMISSION
    ONLY PARK AND TAX. 02 DEC 02:37 2020 UNTIL 02 MAR 15:00 2021.
    CREATED: 02 DEC 02:37 2020

---------------------------------------------------------------------------